Report METAR

 

LIML - Milano/Linate, Italy
Distance from station: NO 27km
Dati ricevuti: 11/12/2023 13:20
Mist, Nuvoloso
Mist, Nuvoloso
 Vento da OSO
Vento: OSO 6 km/h
Temperatura: 7°C
P.to Rugiada: 6°C
Umidità: 93%
Barometro: 1012 hPa
Summary: Mist
Nuvole: Molto nuvoloso
Visibility: 2 km
Cloud details: Few Clouds 61 m
Molto nuvoloso 610 m
2023/12/11 12:20 LIML 111220Z 25003KT 220V290 1800 BR FEW002 BKN020 07/06 Q1012 NOSIG
LIME - Bergamo/Orio Ser, Italy
Distance from station: NNE 43km
Dati ricevuti: 11/12/2023 13:20
Sereno
Sereno
 Vento da Variabile
Vento: Variabile 4 km/h
Temperatura: 9°C
P.to Rugiada: 4°C
Umidità: 71%
Barometro: 1012 hPa
Summary: Sereno
Visibility: superiore a 10 km
2023/12/11 12:20 LIME 111220Z VRB02KT CAVOK 09/04 Q1012 NOSIG
 
LIMS - Piacenza, it-Afb, Italy
Distance from station: SSE 45km
Dati ricevuti: 11/12/2023 12:55
Mist, Parz. nuvoloso
Mist, Parz. nuvoloso
 Vento da N
Vento: N 4 km/h
Temperatura: 4°C
P.to Rugiada: 4°C
Umidità: 100%
Barometro: 1012 hPa
Summary: Mist
Nuvole: Parz. nuvoloso
Visibility: 3 km
Cloud details: Few Clouds 61 m
Parz. nuvoloso 1067 m
2023/12/11 11:55 LIMS 111155Z 35002KT 2700 BR FEW002 SCT035 04/04 Q1012
LIPO - Brescia/Montichi, Italy
Distance from station: ENE 65km
Dati ricevuti: 11/12/2023 13:20
Mist, Nuvoloso
Mist, Nuvoloso
 Vento da SSO
Vento: SSO 9 km/h
Temperatura: 5°C
Temperatura Vento: 3°C
P.to Rugiada: 5°C
Umidità: 100%
Barometro: 1012 hPa
Summary: Mist
Nuvole: Molto nuvoloso
Visibility: 2 km
Cloud details: Molto nuvoloso 91 m
Molto nuvoloso 1554 m
2023/12/11 12:20 LIPO 111220Z AUTO 21005KT 2300 BR BKN003/// BKN051/// 05/05 Q1012